sensor_id;sensor_type;location;lat;lon;timestamp;P1;durP1;ratioP1;P2;durP2;ratioP2
18917;SDS011;9591;52.742;13.650;2023-03-12T00:02:45;3.00;;;2.17;;
18917;SDS011;9591;52.742;13.650;2023-03-12T00:06:02;5.07;;;2.03;;
18917;SDS011;9591;52.742;13.650;2023-03-12T00:08:55;6.07;;;2.47;;
18917;SDS011;9591;52.742;13.650;2023-03-12T00:11:44;2.70;;;2.10;;
18917;SDS011;9591;52.742;13.650;2023-03-12T00:14:31;2.73;;;2.07;;
18917;SDS011;9591;52.742;13.650;2023-03-12T00:17:18;2.67;;;2.23;;
18917;SDS011;9591;52.742;13.650;2023-03-12T00:20:05;2.67;;;2.20;;
18917;SDS011;9591;52.742;13.650;2023-03-12T00:22:52;2.20;;;2.03;;
18917;SDS011;9591;52.742;13.650;2023-03-12T00:25:39;5.20;;;2.47;;
18917;SDS011;9591;52.742;13.650;2023-03-12T00:28:27;4.73;;;2.20;;
18917;SDS011;9591;52.742;13.650;2023-03-12T00:31:15;3.07;;;2.17;;
18917;SDS011;9591;52.742;13.650;2023-03-12T00:34:03;3.07;;;1.83;;
18917;SDS011;9591;52.742;13.650;2023-03-12T00:36:50;5.57;;;1.70;;
18917;SDS011;9591;52.742;13.650;2023-03-12T00:39:36;5.77;;;2.20;;
18917;SDS011;9591;52.742;13.650;2023-03-12T00:42:23;3.90;;;2.43;;
18917;SDS011;9591;52.742;13.650;2023-03-12T00:45:11;3.47;;;2.60;;
18917;SDS011;9591;52.742;13.650;2023-03-12T00:47:58;3.43;;;2.20;;
18917;SDS011;9591;52.742;13.650;2023-03-12T00:50:45;3.73;;;2.20;;
18917;SDS011;9591;52.742;13.650;2023-03-12T00:53:32;3.57;;;1.97;;
18917;SDS011;9591;52.742;13.650;2023-03-12T00:56:18;6.57;;;1.70;;
18917;SDS011;9591;52.742;13.650;2023-03-12T00:59:05;4.27;;;2.37;;
18917;SDS011;9591;52.742;13.650;2023-03-12T01:01:54;5.80;;;2.03;;
18917;SDS011;9591;52.742;13.650;2023-03-12T01:04:40;4.77;;;2.13;;
18917;SDS011;9591;52.742;13.650;2023-03-12T01:07:27;2.33;;;2.13;;
18917;SDS011;9591;52.742;13.650;2023-03-12T01:10:17;3.80;;;2.03;;
18917;SDS011;9591;52.742;13.650;2023-03-12T01:13:05;3.70;;;2.10;;
18917;SDS011;9591;52.742;13.650;2023-03-12T01:15:52;2.13;;;1.87;;
18917;SDS011;9591;52.742;13.650;2023-03-12T01:18:41;2.27;;;2.10;;
18917;SDS011;9591;52.742;13.650;2023-03-12T01:21:28;2.90;;;2.60;;
18917;SDS011;9591;52.742;13.650;2023-03-12T01:24:15;2.10;;;1.90;;
18917;SDS011;9591;52.742;13.650;2023-03-12T01:27:02;2.60;;;2.27;;
18917;SDS011;9591;52.742;13.650;2023-03-12T01:29:48;1.97;;;1.87;;
18917;SDS011;9591;52.742;13.650;2023-03-12T01:32:35;3.70;;;2.73;;
18917;SDS011;9591;52.742;13.650;2023-03-12T01:35:24;4.93;;;2.20;;
18917;SDS011;9591;52.742;13.650;2023-03-12T01:38:12;2.43;;;2.20;;
18917;SDS011;9591;52.742;13.650;2023-03-12T01:41:00;4.50;;;2.13;;
18917;SDS011;9591;52.742;13.650;2023-03-12T01:43:47;7.33;;;2.50;;
18917;SDS011;9591;52.742;13.650;2023-03-12T01:46:36;2.60;;;2.10;;
18917;SDS011;9591;52.742;13.650;2023-03-12T01:49:27;4.43;;;2.23;;
18917;SDS011;9591;52.742;13.650;2023-03-12T01:52:19;2.53;;;2.07;;
18917;SDS011;9591;52.742;13.650;2023-03-12T01:55:11;8.50;;;2.47;;
18917;SDS011;9591;52.742;13.650;2023-03-12T01:58:02;2.50;;;2.10;;
18917;SDS011;9591;52.742;13.650;2023-03-12T02:00:49;5.60;;;2.03;;
18917;SDS011;9591;52.742;13.650;2023-03-12T02:03:35;4.20;;;2.17;;
18917;SDS011;9591;52.742;13.650;2023-03-12T02:06:25;2.83;;;2.13;;
18917;SDS011;9591;52.742;13.650;2023-03-12T02:09:19;2.70;;;2.07;;
18917;SDS011;9591;52.742;13.650;2023-03-12T02:12:08;2.57;;;2.07;;
18917;SDS011;9591;52.742;13.650;2023-03-12T02:14:55;6.43;;;2.07;;
18917;SDS011;9591;52.742;13.650;2023-03-12T02:17:42;7.03;;;2.33;;
18917;SDS011;9591;52.742;13.650;2023-03-12T02:20:31;3.67;;;2.10;;
18917;SDS011;9591;52.742;13.650;2023-03-12T02:23:24;2.80;;;2.53;;
18917;SDS011;9591;52.742;13.650;2023-03-12T02:26:16;3.03;;;2.73;;
18917;SDS011;9591;52.742;13.650;2023-03-12T02:29:05;2.87;;;2.33;;
18917;SDS011;9591;52.742;13.650;2023-03-12T02:31:55;2.67;;;2.27;;
18917;SDS011;9591;52.742;13.650;2023-03-12T02:34:44;3.23;;;2.20;;
18917;SDS011;9591;52.742;13.650;2023-03-12T02:37:32;3.27;;;2.30;;
18917;SDS011;9591;52.742;13.650;2023-03-12T02:40:20;4.13;;;2.53;;
18917;SDS011;9591;52.742;13.650;2023-03-12T02:43:11;4.57;;;2.27;;
18917;SDS011;9591;52.742;13.650;2023-03-12T02:46:00;2.87;;;2.57;;
18917;SDS011;9591;52.742;13.650;2023-03-12T02:48:47;8.43;;;2.87;;
18917;SDS011;9591;52.742;13.650;2023-03-12T02:51:33;5.67;;;2.67;;
18917;SDS011;9591;52.742;13.650;2023-03-12T02:54:20;2.73;;;2.13;;
18917;SDS011;9591;52.742;13.650;2023-03-12T02:57:08;3.10;;;2.87;;
18917;SDS011;9591;52.742;13.650;2023-03-12T02:59:57;3.07;;;2.57;;
18917;SDS011;9591;52.742;13.650;2023-03-12T03:02:44;2.90;;;2.63;;
18917;SDS011;9591;52.742;13.650;2023-03-12T03:05:31;2.90;;;2.70;;
18917;SDS011;9591;52.742;13.650;2023-03-12T03:08:17;4.63;;;2.30;;
18917;SDS011;9591;52.742;13.650;2023-03-12T03:11:05;8.90;;;2.50;;
18917;SDS011;9591;52.742;13.650;2023-03-12T03:13:52;3.63;;;2.83;;
18917;SDS011;9591;52.742;13.650;2023-03-12T03:16:41;7.97;;;2.80;;
18917;SDS011;9591;52.742;13.650;2023-03-12T03:19:28;9.47;;;2.77;;
18917;SDS011;9591;52.742;13.650;2023-03-12T03:22:15;2.80;;;2.53;;
18917;SDS011;9591;52.742;13.650;2023-03-12T03:25:02;4.50;;;2.53;;
18917;SDS011;9591;52.742;13.650;2023-03-12T03:27:49;3.33;;;3.03;;
18917;SDS011;9591;52.742;13.650;2023-03-12T03:30:35;4.03;;;2.50;;
18917;SDS011;9591;52.742;13.650;2023-03-12T03:33:25;4.20;;;2.50;;
18917;SDS011;9591;52.742;13.650;2023-03-12T03:36:12;8.90;;;3.03;;
18917;SDS011;9591;52.742;13.650;2023-03-12T03:39:08;8.03;;;3.20;;
18917;SDS011;9591;52.742;13.650;2023-03-12T03:41:55;7.07;;;2.90;;
18917;SDS011;9591;52.742;13.650;2023-03-12T03:44:44;3.27;;;2.60;;
18917;SDS011;9591;52.742;13.650;2023-03-12T03:47:30;4.73;;;2.83;;
18917;SDS011;9591;52.742;13.650;2023-03-12T03:50:19;3.20;;;2.37;;
18917;SDS011;9591;52.742;13.650;2023-03-12T03:53:06;3.80;;;2.87;;
18917;SDS011;9591;52.742;13.650;2023-03-12T03:55:54;2.57;;;2.30;;
18917;SDS011;9591;52.742;13.650;2023-03-12T03:58:41;5.83;;;3.73;;
18917;SDS011;9591;52.742;13.650;2023-03-12T04:01:29;6.00;;;2.77;;
18917;SDS011;9591;52.742;13.650;2023-03-12T04:04:18;6.43;;;3.00;;
18917;SDS011;9591;52.742;13.650;2023-03-12T04:07:06;5.90;;;2.80;;
18917;SDS011;9591;52.742;13.650;2023-03-12T04:09:53;3.50;;;2.63;;
18917;SDS011;9591;52.742;13.650;2023-03-12T04:12:40;5.47;;;3.20;;
18917;SDS011;9591;52.742;13.650;2023-03-12T04:15:27;4.00;;;2.80;;
18917;SDS011;9591;52.742;13.650;2023-03-12T04:18:14;5.90;;;3.00;;
18917;SDS011;9591;52.742;13.650;2023-03-12T04:21:01;3.30;;;3.00;;
18917;SDS011;9591;52.742;13.650;2023-03-12T04:23:50;3.20;;;2.53;;
18917;SDS011;9591;52.742;13.650;2023-03-12T04:26:40;4.33;;;2.77;;
18917;SDS011;9591;52.742;13.650;2023-03-12T04:29:28;3.40;;;2.67;;
18917;SDS011;9591;52.742;13.650;2023-03-12T04:32:14;5.73;;;2.93;;
18917;SDS011;9591;52.742;13.650;2023-03-12T04:35:01;7.57;;;3.30;;
18917;SDS011;9591;52.742;13.650;2023-03-12T04:37:48;4.57;;;3.17;;
18917;SDS011;9591;52.742;13.650;2023-03-12T04:40:37;5.30;;;3.33;;
18917;SDS011;9591;52.742;13.650;2023-03-12T04:43:24;11.70;;;3.60;;
18917;SDS011;9591;52.742;13.650;2023-03-12T04:46:11;3.37;;;3.03;;
18917;SDS011;9591;52.742;13.650;2023-03-12T04:49:00;4.13;;;3.43;;
18917;SDS011;9591;52.742;13.650;2023-03-12T04:51:49;7.17;;;2.87;;
18917;SDS011;9591;52.742;13.650;2023-03-12T04:54:37;3.07;;;2.63;;
18917;SDS011;9591;52.742;13.650;2023-03-12T04:57:26;8.87;;;3.10;;
18917;SDS011;9591;52.742;13.650;2023-03-12T05:00:12;6.70;;;3.17;;
18917;SDS011;9591;52.742;13.650;2023-03-12T05:03:00;6.13;;;3.13;;
18917;SDS011;9591;52.742;13.650;2023-03-12T05:05:48;9.33;;;3.07;;
18917;SDS011;9591;52.742;13.650;2023-03-12T05:08:35;4.47;;;3.37;;
18917;SDS011;9591;52.742;13.650;2023-03-12T05:11:21;3.10;;;2.27;;
18917;SDS011;9591;52.742;13.650;2023-03-12T05:14:10;6.63;;;3.13;;
18917;SDS011;9591;52.742;13.650;2023-03-12T05:16:59;6.07;;;3.27;;
18917;SDS011;9591;52.742;13.650;2023-03-12T05:19:46;5.03;;;3.43;;
18917;SDS011;9591;52.742;13.650;2023-03-12T05:22:33;4.03;;;2.90;;
18917;SDS011;9591;52.742;13.650;2023-03-12T05:25:19;5.53;;;3.20;;
18917;SDS011;9591;52.742;13.650;2023-03-12T05:28:06;5.10;;;3.87;;
18917;SDS011;9591;52.742;13.650;2023-03-12T05:30:57;3.53;;;3.23;;
18917;SDS011;9591;52.742;13.650;2023-03-12T05:33:46;6.60;;;3.17;;
18917;SDS011;9591;52.742;13.650;2023-03-12T05:36:36;8.20;;;3.23;;
18917;SDS011;9591;52.742;13.650;2023-03-12T05:39:24;7.90;;;3.20;;
18917;SDS011;9591;52.742;13.650;2023-03-12T05:42:15;4.13;;;3.03;;
18917;SDS011;9591;52.742;13.650;2023-03-12T05:45:03;5.67;;;4.07;;
18917;SDS011;9591;52.742;13.650;2023-03-12T05:47:53;3.60;;;3.07;;
18917;SDS011;9591;52.742;13.650;2023-03-12T05:50:41;3.83;;;2.97;;
18917;SDS011;9591;52.742;13.650;2023-03-12T05:53:28;7.37;;;3.53;;
18917;SDS011;9591;52.742;13.650;2023-03-12T05:56:16;6.77;;;3.50;;
18917;SDS011;9591;52.742;13.650;2023-03-12T05:59:04;6.73;;;3.33;;
18917;SDS011;9591;52.742;13.650;2023-03-12T06:01:51;8.67;;;3.77;;
18917;SDS011;9591;52.742;13.650;2023-03-12T06:04:39;7.30;;;3.23;;
18917;SDS011;9591;52.742;13.650;2023-03-12T06:07:26;4.43;;;3.17;;
18917;SDS011;9591;52.742;13.650;2023-03-12T06:10:13;14.37;;;3.73;;
18917;SDS011;9591;52.742;13.650;2023-03-12T06:13:01;9.13;;;3.27;;
18917;SDS011;9591;52.742;13.650;2023-03-12T06:15:49;8.37;;;3.47;;
18917;SDS011;9591;52.742;13.650;2023-03-12T06:18:36;7.60;;;3.80;;
18917;SDS011;9591;52.742;13.650;2023-03-12T06:21:25;4.37;;;3.77;;
18917;SDS011;9591;52.742;13.650;2023-03-12T06:24:13;7.33;;;3.73;;
18917;SDS011;9591;52.742;13.650;2023-03-12T06:27:06;3.90;;;3.50;;
18917;SDS011;9591;52.742;13.650;2023-03-12T06:29:53;4.70;;;3.87;;
18917;SDS011;9591;52.742;13.650;2023-03-12T06:32:40;4.27;;;3.40;;
18917;SDS011;9591;52.742;13.650;2023-03-12T06:35:26;5.90;;;3.60;;
18917;SDS011;9591;52.742;13.650;2023-03-12T06:38:15;8.03;;;3.67;;
18917;SDS011;9591;52.742;13.650;2023-03-12T06:41:03;9.10;;;3.67;;
18917;SDS011;9591;52.742;13.650;2023-03-12T06:43:51;11.40;;;4.30;;
18917;SDS011;9591;52.742;13.650;2023-03-12T06:46:38;5.67;;;2.93;;
18917;SDS011;9591;52.742;13.650;2023-03-12T06:49:27;7.13;;;3.47;;
18917;SDS011;9591;52.742;13.650;2023-03-12T06:52:16;5.43;;;3.53;;
18917;SDS011;9591;52.742;13.650;2023-03-12T06:55:05;10.83;;;3.50;;
18917;SDS011;9591;52.742;13.650;2023-03-12T06:57:52;4.57;;;3.80;;
18917;SDS011;9591;52.742;13.650;2023-03-12T07:00:39;5.17;;;3.80;;
18917;SDS011;9591;52.742;13.650;2023-03-12T07:03:25;5.13;;;3.70;;
18917;SDS011;9591;52.742;13.650;2023-03-12T07:06:13;7.57;;;3.53;;
18917;SDS011;9591;52.742;13.650;2023-03-12T07:09:00;4.87;;;3.57;;
18917;SDS011;9591;52.742;13.650;2023-03-12T07:11:48;7.03;;;3.20;;
18917;SDS011;9591;52.742;13.650;2023-03-12T07:14:35;3.87;;;3.30;;
18917;SDS011;9591;52.742;13.650;2023-03-12T07:17:21;6.33;;;3.40;;
18917;SDS011;9591;52.742;13.650;2023-03-12T07:20:09;5.63;;;3.40;;
18917;SDS011;9591;52.742;13.650;2023-03-12T07:22:57;10.20;;;3.70;;
18917;SDS011;9591;52.742;13.650;2023-03-12T07:25:44;7.53;;;3.07;;
18917;SDS011;9591;52.742;13.650;2023-03-12T07:28:33;6.30;;;3.20;;
18917;SDS011;9591;52.742;13.650;2023-03-12T07:31:20;10.53;;;3.20;;
18917;SDS011;9591;52.742;13.650;2023-03-12T07:34:07;6.17;;;3.10;;
18917;SDS011;9591;52.742;13.650;2023-03-12T07:36:54;3.40;;;3.10;;
18917;SDS011;9591;52.742;13.650;2023-03-12T07:39:40;4.13;;;3.10;;
18917;SDS011;9591;52.742;13.650;2023-03-12T07:42:27;5.17;;;3.10;;
18917;SDS011;9591;52.742;13.650;2023-03-12T07:45:16;4.37;;;3.10;;
18917;SDS011;9591;52.742;13.650;2023-03-12T07:48:03;8.43;;;3.67;;
18917;SDS011;9591;52.742;13.650;2023-03-12T07:50:50;4.50;;;2.90;;
18917;SDS011;9591;52.742;13.650;2023-03-12T07:53:37;4.03;;;2.97;;
18917;SDS011;9591;52.742;13.650;2023-03-12T07:56:24;5.27;;;3.30;;
18917;SDS011;9591;52.742;13.650;2023-03-12T07:59:11;4.53;;;2.77;;
18917;SDS011;9591;52.742;13.650;2023-03-12T08:01:59;5.30;;;2.93;;
18917;SDS011;9591;52.742;13.650;2023-03-12T08:04:46;3.80;;;2.50;;
18917;SDS011;9591;52.742;13.650;2023-03-12T08:07:33;4.40;;;2.30;;
18917;SDS011;9591;52.742;13.650;2023-03-12T08:10:21;3.23;;;2.43;;
18917;SDS011;9591;52.742;13.650;2023-03-12T08:13:08;2.23;;;2.03;;
18917;SDS011;9591;52.742;13.650;2023-03-12T08:15:55;13.00;;;2.77;;
18917;SDS011;9591;52.742;13.650;2023-03-12T08:18:43;3.53;;;2.00;;
18917;SDS011;9591;52.742;13.650;2023-03-12T08:21:30;5.10;;;2.07;;
18917;SDS011;9591;52.742;13.650;2023-03-12T08:24:16;4.10;;;2.40;;
18917;SDS011;9591;52.742;13.650;2023-03-12T08:27:03;2.97;;;2.00;;
18917;SDS011;9591;52.742;13.650;2023-03-12T08:29:50;3.20;;;1.70;;
18917;SDS011;9591;52.742;13.650;2023-03-12T08:32:37;8.37;;;2.30;;
18917;SDS011;9591;52.742;13.650;2023-03-12T08:35:26;5.70;;;2.73;;
18917;SDS011;9591;52.742;13.650;2023-03-12T08:38:12;8.53;;;3.03;;
18917;SDS011;9591;52.742;13.650;2023-03-12T08:40:59;3.53;;;2.43;;
18917;SDS011;9591;52.742;13.650;2023-03-12T08:43:47;5.27;;;2.60;;
18917;SDS011;9591;52.742;13.650;2023-03-12T08:46:33;3.73;;;2.00;;
18917;SDS011;9591;52.742;13.650;2023-03-12T08:49:20;6.50;;;2.97;;
18917;SDS011;9591;52.742;13.650;2023-03-12T08:52:09;5.50;;;2.57;;
18917;SDS011;9591;52.742;13.650;2023-03-12T08:54:56;4.83;;;2.80;;
18917;SDS011;9591;52.742;13.650;2023-03-12T08:57:43;7.07;;;2.60;;
18917;SDS011;9591;52.742;13.650;2023-03-12T09:00:30;3.97;;;2.37;;
18917;SDS011;9591;52.742;13.650;2023-03-12T09:03:17;6.40;;;2.53;;
18917;SDS011;9591;52.742;13.650;2023-03-12T09:06:06;5.40;;;3.10;;
18917;SDS011;9591;52.742;13.650;2023-03-12T09:08:58;7.47;;;2.80;;
18917;SDS011;9591;52.742;13.650;2023-03-12T09:11:49;5.87;;;2.50;;
18917;SDS011;9591;52.742;13.650;2023-03-12T09:14:35;4.97;;;2.83;;
18917;SDS011;9591;52.742;13.650;2023-03-12T09:17:42;3.93;;;2.60;;
18917;SDS011;9591;52.742;13.650;2023-03-12T09:20:29;6.17;;;2.87;;
18917;SDS011;9591;52.742;13.650;2023-03-12T09:23:16;4.63;;;2.90;;
18917;SDS011;9591;52.742;13.650;2023-03-12T09:26:07;10.37;;;2.93;;
18917;SDS011;9591;52.742;13.650;2023-03-12T09:28:54;4.47;;;3.13;;
18917;SDS011;9591;52.742;13.650;2023-03-12T09:31:41;7.23;;;2.60;;
18917;SDS011;9591;52.742;13.650;2023-03-12T09:34:28;5.37;;;2.47;;
18917;SDS011;9591;52.742;13.650;2023-03-12T09:37:15;3.97;;;2.50;;
18917;SDS011;9591;52.742;13.650;2023-03-12T09:40:02;4.53;;;2.50;;
18917;SDS011;9591;52.742;13.650;2023-03-12T09:42:54;5.23;;;2.67;;
18917;SDS011;9591;52.742;13.650;2023-03-12T09:45:44;3.80;;;2.47;;
18917;SDS011;9591;52.742;13.650;2023-03-12T09:48:33;4.10;;;2.20;;
18917;SDS011;9591;52.742;13.650;2023-03-12T09:51:22;4.00;;;2.20;;
18917;SDS011;9591;52.742;13.650;2023-03-12T09:54:15;2.30;;;2.13;;
18917;SDS011;9591;52.742;13.650;2023-03-12T09:57:10;2.57;;;2.37;;
18917;SDS011;9591;52.742;13.650;2023-03-12T10:00:00;2.87;;;2.23;;
18917;SDS011;9591;52.742;13.650;2023-03-12T10:03:03;4.53;;;2.13;;
18917;SDS011;9591;52.742;13.650;2023-03-12T10:06:00;3.20;;;2.17;;
18917;SDS011;9591;52.742;13.650;2023-03-12T10:08:57;4.57;;;2.27;;
18917;SDS011;9591;52.742;13.650;2023-03-12T10:11:53;2.50;;;2.27;;
18917;SDS011;9591;52.742;13.650;2023-03-12T10:14:52;5.10;;;1.80;;
18917;SDS011;9591;52.742;13.650;2023-03-12T10:17:52;3.17;;;2.90;;
18917;SDS011;9591;52.742;13.650;2023-03-12T10:20:52;6.27;;;1.70;;
18917;SDS011;9591;52.742;13.650;2023-03-12T10:23:53;3.37;;;1.53;;
18917;SDS011;9591;52.742;13.650;2023-03-12T10:26:51;2.50;;;1.30;;
18917;SDS011;9591;52.742;13.650;2023-03-12T10:29:41;2.80;;;1.73;;
18917;SDS011;9591;52.742;13.650;2023-03-12T10:32:33;1.90;;;1.80;;
18917;SDS011;9591;52.742;13.650;2023-03-12T10:35:29;4.07;;;1.87;;
18917;SDS011;9591;52.742;13.650;2023-03-12T10:38:19;2.80;;;1.90;;
18917;SDS011;9591;52.742;13.650;2023-03-12T10:41:14;2.33;;;2.10;;
18917;SDS011;9591;52.742;13.650;2023-03-12T10:44:05;2.80;;;1.70;;
18917;SDS011;9591;52.742;13.650;2023-03-12T10:47:03;2.00;;;1.77;;
18917;SDS011;9591;52.742;13.650;2023-03-12T10:50:01;4.47;;;1.73;;
18917;SDS011;9591;52.742;13.650;2023-03-12T10:53:13;5.73;;;2.17;;
18917;SDS011;9591;52.742;13.650;2023-03-12T10:56:07;3.97;;;2.13;;
18917;SDS011;9591;52.742;13.650;2023-03-12T10:58:55;2.30;;;2.00;;
18917;SDS011;9591;52.742;13.650;2023-03-12T11:01:45;2.93;;;1.83;;
18917;SDS011;9591;52.742;13.650;2023-03-12T11:04:34;2.60;;;2.10;;
18917;SDS011;9591;52.742;13.650;2023-03-12T11:07:24;3.83;;;2.10;;
18917;SDS011;9591;52.742;13.650;2023-03-12T11:10:19;5.23;;;1.97;;
18917;SDS011;9591;52.742;13.650;2023-03-12T11:13:21;4.70;;;2.00;;
18917;SDS011;9591;52.742;13.650;2023-03-12T11:16:22;3.70;;;2.60;;
18917;SDS011;9591;52.742;13.650;2023-03-12T11:19:25;3.13;;;1.97;;
18917;SDS011;9591;52.742;13.650;2023-03-12T11:22:13;3.90;;;1.83;;
18917;SDS011;9591;52.742;13.650;2023-03-12T11:25:20;2.00;;;1.80;;
18917;SDS011;9591;52.742;13.650;2023-03-12T11:28:11;11.00;;;2.23;;
18917;SDS011;9591;52.742;13.650;2023-03-12T11:31:04;2.33;;;2.00;;
18917;SDS011;9591;52.742;13.650;2023-03-12T11:33:56;3.30;;;1.87;;
18917;SDS011;9591;52.742;13.650;2023-03-12T11:36:50;4.13;;;2.07;;
18917;SDS011;9591;52.742;13.650;2023-03-12T11:39:46;6.97;;;2.37;;
18917;SDS011;9591;52.742;13.650;2023-03-12T11:42:48;2.47;;;1.97;;
18917;SDS011;9591;52.742;13.650;2023-03-12T11:45:54;4.27;;;2.23;;
18917;SDS011;9591;52.742;13.650;2023-03-12T11:48:55;5.00;;;2.20;;
18917;SDS011;9591;52.742;13.650;2023-03-12T11:51:54;5.27;;;2.07;;
18917;SDS011;9591;52.742;13.650;2023-03-12T11:54:54;3.90;;;2.40;;
18917;SDS011;9591;52.742;13.650;2023-03-12T11:58:04;2.63;;;2.10;;
18917;SDS011;9591;52.742;13.650;2023-03-12T12:01:07;6.40;;;2.00;;
18917;SDS011;9591;52.742;13.650;2023-03-12T12:07:22;2.87;;;2.03;;
18917;SDS011;9591;52.742;13.650;2023-03-12T12:10:22;3.23;;;2.20;;
18917;SDS011;9591;52.742;13.650;2023-03-12T12:13:16;4.00;;;1.80;;
18917;SDS011;9591;52.742;13.650;2023-03-12T12:16:16;3.20;;;1.77;;
18917;SDS011;9591;52.742;13.650;2023-03-12T12:19:17;2.23;;;1.53;;
18917;SDS011;9591;52.742;13.650;2023-03-12T12:22:22;2.60;;;2.03;;
18917;SDS011;9591;52.742;13.650;2023-03-12T12:25:24;6.13;;;1.70;;
18917;SDS011;9591;52.742;13.650;2023-03-12T12:31:51;4.27;;;1.90;;
18917;SDS011;9591;52.742;13.650;2023-03-12T12:37:50;2.90;;;1.83;;
18917;SDS011;9591;52.742;13.650;2023-03-12T12:40:42;3.20;;;2.23;;
18917;SDS011;9591;52.742;13.650;2023-03-12T12:43:34;4.37;;;1.57;;
18917;SDS011;9591;52.742;13.650;2023-03-12T12:46:25;2.43;;;2.23;;
18917;SDS011;9591;52.742;13.650;2023-03-12T12:49:18;3.97;;;1.73;;
18917;SDS011;9591;52.742;13.650;2023-03-12T12:52:09;1.77;;;1.57;;
18917;SDS011;9591;52.742;13.650;2023-03-12T12:54:59;1.70;;;1.60;;
18917;SDS011;9591;52.742;13.650;2023-03-12T12:57:53;4.37;;;2.17;;
18917;SDS011;9591;52.742;13.650;2023-03-12T13:00:45;3.47;;;1.90;;
18917;SDS011;9591;52.742;13.650;2023-03-12T13:03:36;2.40;;;1.80;;
18917;SDS011;9591;52.742;13.650;2023-03-12T13:06:26;6.03;;;2.53;;
18917;SDS011;9591;52.742;13.650;2023-03-12T13:09:14;4.03;;;2.20;;
18917;SDS011;9591;52.742;13.650;2023-03-12T13:18:24;3.73;;;2.03;;
18917;SDS011;9591;52.742;13.650;2023-03-12T13:21:17;3.67;;;2.20;;
18917;SDS011;9591;52.742;13.650;2023-03-12T13:24:13;3.03;;;1.87;;
18917;SDS011;9591;52.742;13.650;2023-03-12T13:27:06;3.23;;;2.60;;
18917;SDS011;9591;52.742;13.650;2023-03-12T13:30:13;5.13;;;2.30;;
18917;SDS011;9591;52.742;13.650;2023-03-12T13:33:37;3.67;;;2.43;;
18917;SDS011;9591;52.742;13.650;2023-03-12T13:36:30;3.33;;;2.20;;
18917;SDS011;9591;52.742;13.650;2023-03-12T13:39:27;3.93;;;2.47;;
18917;SDS011;9591;52.742;13.650;2023-03-12T13:42:26;2.93;;;2.57;;
18917;SDS011;9591;52.742;13.650;2023-03-12T13:45:25;4.60;;;2.50;;
18917;SDS011;9591;52.742;13.650;2023-03-12T13:48:15;2.50;;;2.10;;
18917;SDS011;9591;52.742;13.650;2023-03-12T13:51:09;3.63;;;2.27;;
18917;SDS011;9591;52.742;13.650;2023-03-12T13:54:02;3.80;;;2.50;;
18917;SDS011;9591;52.742;13.650;2023-03-12T13:56:53;5.70;;;2.40;;
18917;SDS011;9591;52.742;13.650;2023-03-12T13:59:43;4.20;;;2.50;;
18917;SDS011;9591;52.742;13.650;2023-03-12T14:02:32;4.30;;;2.50;;
18917;SDS011;9591;52.742;13.650;2023-03-12T14:05:21;5.13;;;2.30;;
18917;SDS011;9591;52.742;13.650;2023-03-12T14:08:17;5.27;;;2.37;;
18917;SDS011;9591;52.742;13.650;2023-03-12T14:11:26;3.53;;;2.30;;
18917;SDS011;9591;52.742;13.650;2023-03-12T14:14:26;3.10;;;1.80;;
18917;SDS011;9591;52.742;13.650;2023-03-12T14:17:25;3.10;;;2.77;;
18917;SDS011;9591;52.742;13.650;2023-03-12T14:20:15;2.00;;;1.90;;
18917;SDS011;9591;52.742;13.650;2023-03-12T14:23:04;3.60;;;1.80;;
18917;SDS011;9591;52.742;13.650;2023-03-12T14:25:55;1.63;;;1.27;;
18917;SDS011;9591;52.742;13.650;2023-03-12T14:28:47;2.67;;;1.63;;
18917;SDS011;9591;52.742;13.650;2023-03-12T14:31:40;2.53;;;1.60;;
18917;SDS011;9591;52.742;13.650;2023-03-12T14:34:27;2.00;;;1.90;;
18917;SDS011;9591;52.742;13.650;2023-03-12T14:37:19;2.93;;;2.17;;
18917;SDS011;9591;52.742;13.650;2023-03-12T14:40:16;2.53;;;1.83;;
18917;SDS011;9591;52.742;13.650;2023-03-12T14:43:20;4.53;;;2.57;;
18917;SDS011;9591;52.742;13.650;2023-03-12T14:46:14;6.60;;;4.03;;
18917;SDS011;9591;52.742;13.650;2023-03-12T14:49:02;7.93;;;3.73;;
18917;SDS011;9591;52.742;13.650;2023-03-12T14:51:49;12.43;;;7.50;;
18917;SDS011;9591;52.742;13.650;2023-03-12T14:54:36;2.17;;;1.90;;
18917;SDS011;9591;52.742;13.650;2023-03-12T14:57:24;3.90;;;2.00;;
18917;SDS011;9591;52.742;13.650;2023-03-12T15:00:20;5.27;;;2.17;;
18917;SDS011;9591;52.742;13.650;2023-03-12T15:03:11;2.23;;;2.10;;
18917;SDS011;9591;52.742;13.650;2023-03-12T15:06:01;3.50;;;2.10;;
18917;SDS011;9591;52.742;13.650;2023-03-12T15:08:48;1.70;;;1.67;;
18917;SDS011;9591;52.742;13.650;2023-03-12T15:11:35;5.03;;;2.17;;
18917;SDS011;9591;52.742;13.650;2023-03-12T15:14:22;1.90;;;1.80;;
18917;SDS011;9591;52.742;13.650;2023-03-12T15:17:13;3.73;;;1.90;;
18917;SDS011;9591;52.742;13.650;2023-03-12T15:20:04;2.30;;;2.10;;
18917;SDS011;9591;52.742;13.650;2023-03-12T15:22:53;4.57;;;2.10;;
18917;SDS011;9591;52.742;13.650;2023-03-12T15:25:41;4.40;;;2.27;;
18917;SDS011;9591;52.742;13.650;2023-03-12T15:28:28;3.83;;;2.23;;
18917;SDS011;9591;52.742;13.650;2023-03-12T15:31:15;2.80;;;2.60;;
18917;SDS011;9591;52.742;13.650;2023-03-12T15:34:04;3.87;;;2.20;;
18917;SDS011;9591;52.742;13.650;2023-03-12T15:36:53;1.93;;;1.60;;
18917;SDS011;9591;52.742;13.650;2023-03-12T15:39:39;2.63;;;2.00;;
18917;SDS011;9591;52.742;13.650;2023-03-12T15:42:35;2.70;;;1.73;;
18917;SDS011;9591;52.742;13.650;2023-03-12T15:45:25;5.93;;;2.00;;
18917;SDS011;9591;52.742;13.650;2023-03-12T15:48:21;3.13;;;1.70;;
18917;SDS011;9591;52.742;13.650;2023-03-12T15:51:12;2.20;;;1.70;;
18917;SDS011;9591;52.742;13.650;2023-03-12T15:54:03;2.00;;;1.90;;
18917;SDS011;9591;52.742;13.650;2023-03-12T15:56:51;2.33;;;1.93;;
18917;SDS011;9591;52.742;13.650;2023-03-12T15:59:38;1.90;;;1.80;;
18917;SDS011;9591;52.742;13.650;2023-03-12T16:02:34;2.67;;;1.40;;
18917;SDS011;9591;52.742;13.650;2023-03-12T16:05:23;1.97;;;1.60;;
18917;SDS011;9591;52.742;13.650;2023-03-12T16:08:13;1.60;;;1.50;;
18917;SDS011;9591;52.742;13.650;2023-03-12T16:11:03;1.80;;;1.70;;
18917;SDS011;9591;52.742;13.650;2023-03-12T16:13:52;3.23;;;1.80;;
18917;SDS011;9591;52.742;13.650;2023-03-12T16:16:44;2.33;;;2.13;;
18917;SDS011;9591;52.742;13.650;2023-03-12T16:19:31;2.80;;;1.70;;
18917;SDS011;9591;52.742;13.650;2023-03-12T16:22:18;2.00;;;1.80;;
18917;SDS011;9591;52.742;13.650;2023-03-12T16:25:06;3.33;;;2.17;;
18917;SDS011;9591;52.742;13.650;2023-03-12T16:27:59;2.33;;;1.67;;
18917;SDS011;9591;52.742;13.650;2023-03-12T16:30:47;2.63;;;2.00;;
18917;SDS011;9591;52.742;13.650;2023-03-12T16:33:35;1.90;;;1.80;;
18917;SDS011;9591;52.742;13.650;2023-03-12T16:36:22;3.83;;;1.50;;
18917;SDS011;9591;52.742;13.650;2023-03-12T16:39:09;15.47;;;2.03;;
18917;SDS011;9591;52.742;13.650;2023-03-12T16:41:56;7.70;;;2.53;;
18917;SDS011;9591;52.742;13.650;2023-03-12T16:44:44;4.67;;;2.30;;
18917;SDS011;9591;52.742;13.650;2023-03-12T16:47:32;2.83;;;2.37;;
18917;SDS011;9591;52.742;13.650;2023-03-12T16:50:19;2.77;;;2.53;;
18917;SDS011;9591;52.742;13.650;2023-03-12T16:53:08;3.17;;;2.37;;
18917;SDS011;9591;52.742;13.650;2023-03-12T16:55:57;9.03;;;2.67;;
18917;SDS011;9591;52.742;13.650;2023-03-12T16:58:46;4.73;;;2.53;;
18917;SDS011;9591;52.742;13.650;2023-03-12T17:01:35;3.33;;;2.50;;
18917;SDS011;9591;52.742;13.650;2023-03-12T17:04:22;3.17;;;2.80;;
18917;SDS011;9591;52.742;13.650;2023-03-12T17:07:08;2.20;;;2.00;;
18917;SDS011;9591;52.742;13.650;2023-03-12T17:09:56;3.30;;;2.43;;
18917;SDS011;9591;52.742;13.650;2023-03-12T17:12:43;2.77;;;2.20;;
18917;SDS011;9591;52.742;13.650;2023-03-12T17:15:32;3.40;;;3.10;;
18917;SDS011;9591;52.742;13.650;2023-03-12T17:18:20;4.43;;;2.80;;
18917;SDS011;9591;52.742;13.650;2023-03-12T17:21:09;3.37;;;3.03;;
18917;SDS011;9591;52.742;13.650;2023-03-12T17:23:57;2.90;;;2.60;;